createdAt,value
2023-11-30T00:00:40.022Z,12.60
2023-11-30T00:03:06.984Z,12.37
2023-11-30T00:05:33.290Z,12.07
2023-11-30T00:07:59.481Z,12.60
2023-11-30T00:10:25.640Z,12.17
2023-11-30T00:12:51.890Z,11.70
2023-11-30T00:15:18.100Z,11.73
2023-11-30T00:17:44.342Z,12.03
2023-11-30T00:20:12.544Z,12.37
2023-11-30T00:22:39.707Z,11.63
2023-11-30T00:25:06.972Z,12.60
2023-11-30T00:27:33.299Z,12.33
2023-11-30T00:29:59.672Z,13.13
2023-11-30T00:32:25.903Z,11.73
2023-11-30T00:34:52.258Z,12.67
2023-11-30T00:37:19.145Z,12.80
2023-11-30T00:39:45.380Z,12.33
2023-11-30T00:42:11.712Z,11.87
2023-11-30T00:44:38.065Z,12.20
2023-11-30T00:47:04.646Z,11.70
2023-11-30T00:49:30.950Z,12.73
2023-11-30T00:51:57.239Z,12.87
2023-11-30T00:54:24.200Z,13.47
2023-11-30T00:56:50.475Z,13.33
2023-11-30T00:59:16.756Z,13.23
2023-11-30T01:01:43.134Z,13.00
2023-11-30T01:04:09.604Z,13.17
2023-11-30T01:06:35.823Z,12.97
2023-11-30T01:09:02.048Z,12.73
2023-11-30T01:11:28.895Z,12.10
2023-11-30T01:13:55.141Z,12.47
2023-11-30T01:16:21.391Z,12.73
2023-11-30T01:18:47.924Z,12.70
2023-11-30T01:21:14.388Z,13.30
2023-11-30T01:23:40.650Z,12.97
2023-11-30T01:26:08.750Z,13.80
2023-11-30T01:28:35.646Z,12.90
2023-11-30T01:31:02.379Z,12.60
2023-11-30T01:33:28.804Z,13.43
2023-11-30T01:35:55.099Z,12.47
2023-11-30T01:38:21.351Z,13.00
2023-11-30T01:40:47.894Z,13.13
2023-11-30T01:43:17.004Z,13.77
2023-11-30T01:45:43.901Z,13.57
2023-11-30T01:48:11.069Z,13.90
2023-11-30T01:50:37.612Z,14.50
2023-11-30T01:53:03.893Z,14.57
2023-11-30T01:55:30.175Z,13.47
2023-11-30T01:57:57.130Z,14.03
2023-11-30T02:00:23.433Z,14.73
2023-11-30T02:02:50.350Z,14.33
2023-11-30T02:05:16.656Z,13.93
2023-11-30T02:07:42.995Z,14.20
2023-11-30T02:10:09.437Z,15.57
2023-11-30T02:12:35.416Z,14.30
2023-11-30T02:15:01.792Z,15.80
2023-11-30T02:17:28.126Z,15.67
2023-11-30T02:19:55.042Z,14.83
2023-11-30T02:22:21.769Z,14.93
2023-11-30T02:24:48.076Z,14.53
2023-11-30T02:27:14.324Z,14.23
2023-11-30T02:29:40.653Z,15.93
2023-11-30T02:32:07.285Z,14.63
2023-11-30T02:34:33.615Z,14.97
2023-11-30T02:37:00.097Z,15.50
2023-11-30T02:39:27.284Z,14.33
2023-11-30T02:41:53.635Z,15.87
2023-11-30T02:44:19.841Z,15.87
2023-11-30T02:46:45.996Z,16.17
2023-11-30T02:49:12.319Z,16.87
2023-11-30T02:51:38.509Z,15.53
2023-11-30T02:54:04.869Z,15.33
2023-11-30T02:56:38.126Z,14.73
2023-11-30T02:59:04.355Z,15.87
2023-11-30T03:01:30.600Z,16.10
2023-11-30T03:03:57.064Z,15.87
2023-11-30T03:06:23.402Z,16.33
2023-11-30T03:08:49.806Z,16.03
2023-11-30T03:11:16.048Z,15.97
2023-11-30T03:13:42.887Z,16.57
2023-11-30T03:16:09.497Z,17.33
2023-11-30T03:18:39.405Z,17.20
2023-11-30T03:21:14.601Z,16.73
2023-11-30T03:23:40.827Z,17.57
2023-11-30T03:26:07.130Z,16.70
2023-11-30T03:28:33.387Z,16.87
2023-11-30T03:31:00.249Z,17.13
2023-11-30T03:33:26.467Z,16.97
2023-11-30T03:35:52.879Z,16.70
2023-11-30T03:38:19.208Z,17.47
2023-11-30T03:40:45.387Z,16.90
2023-11-30T03:43:11.670Z,17.47
2023-11-30T03:45:37.872Z,16.93
2023-11-30T03:48:05.175Z,17.63
2023-11-30T03:50:31.468Z,18.20
2023-11-30T03:52:57.747Z,19.00
2023-11-30T03:55:24.045Z,16.23
2023-11-30T03:57:50.329Z,16.83
2023-11-30T04:00:17.011Z,17.40
2023-11-30T04:02:43.797Z,16.10
2023-11-30T04:05:11.848Z,16.90
2023-11-30T04:07:39.488Z,15.80
2023-11-30T04:10:06.559Z,17.57
2023-11-30T04:12:33.064Z,18.23
2023-11-30T04:14:59.476Z,16.80
2023-11-30T04:17:25.705Z,17.23
2023-11-30T04:19:51.969Z,17.87
2023-11-30T04:22:18.989Z,17.80
2023-11-30T04:24:45.551Z,16.70
2023-11-30T04:27:11.826Z,17.93
2023-11-30T04:29:38.054Z,17.00
2023-11-30T04:32:04.974Z,17.70
2023-11-30T04:34:31.265Z,18.07
2023-11-30T04:36:57.489Z,17.50
2023-11-30T04:39:25.032Z,16.90
2023-11-30T04:41:52.005Z,18.00
2023-11-30T04:44:23.170Z,17.10
2023-11-30T04:46:50.163Z,17.97
2023-11-30T04:49:16.321Z,17.07
2023-11-30T04:51:42.668Z,18.63
2023-11-30T04:54:09.057Z,17.67
2023-11-30T04:56:36.003Z,18.03
2023-11-30T04:59:02.476Z,17.60
2023-11-30T05:01:30.036Z,17.77
2023-11-30T05:03:57.501Z,16.60
2023-11-30T05:06:23.952Z,16.63
2023-11-30T05:08:50.201Z,17.77
2023-11-30T05:11:16.593Z,17.83
2023-11-30T05:13:43.584Z,17.23
2023-11-30T05:16:13.061Z,17.03
2023-11-30T05:18:39.323Z,17.10
2023-11-30T05:21:06.143Z,16.90
2023-11-30T05:23:32.378Z,17.80
2023-11-30T05:25:58.582Z,17.00
2023-11-30T05:28:24.886Z,18.30
2023-11-30T05:30:52.038Z,16.67
2023-11-30T05:33:18.604Z,16.93
2023-11-30T05:35:45.013Z,16.57
2023-11-30T05:38:11.251Z,17.30
2023-11-30T05:40:37.636Z,17.93
2023-11-30T05:43:03.921Z,16.40
2023-11-30T05:45:30.270Z,17.03
2023-11-30T05:47:57.299Z,15.93
2023-11-30T05:50:23.600Z,15.97
2023-11-30T05:52:49.889Z,15.63
2023-11-30T05:55:17.143Z,16.10
2023-11-30T05:57:43.429Z,16.50
2023-11-30T06:00:10.954Z,17.60
2023-11-30T06:02:37.260Z,16.33
2023-11-30T06:05:05.482Z,17.07
2023-11-30T06:07:33.637Z,16.63
2023-11-30T06:10:00.041Z,18.10
2023-11-30T06:12:26.935Z,16.63
2023-11-30T06:14:53.514Z,16.70
2023-11-30T06:17:19.749Z,15.77
2023-11-30T06:19:45.977Z,16.47
2023-11-30T06:22:13.292Z,17.27
2023-11-30T06:24:39.619Z,16.60
2023-11-30T06:27:07.628Z,16.47
2023-11-30T06:29:34.205Z,17.17
2023-11-30T06:32:00.907Z,16.37
2023-11-30T06:34:27.276Z,16.07
2023-11-30T06:36:53.538Z,15.87
2023-11-30T06:39:20.577Z,15.17
2023-11-30T06:41:47.487Z,15.90
2023-11-30T06:44:13.785Z,16.47
2023-11-30T06:46:42.780Z,16.83
2023-11-30T06:49:09.034Z,15.40
2023-11-30T06:51:35.260Z,17.33
2023-11-30T06:54:01.659Z,16.20
2023-11-30T06:56:28.560Z,15.80
2023-11-30T06:58:54.777Z,17.73
2023-11-30T07:01:23.613Z,16.97
2023-11-30T07:03:50.044Z,17.40
2023-11-30T07:06:16.549Z,15.83
2023-11-30T07:08:43.261Z,16.73
2023-11-30T07:11:11.314Z,16.70
2023-11-30T07:13:38.653Z,15.53
2023-11-30T07:16:05.792Z,16.97
2023-11-30T07:18:32.042Z,15.03
2023-11-30T07:20:58.303Z,14.47
2023-11-30T07:23:24.547Z,14.70
2023-11-30T07:25:50.836Z,15.00
2023-11-30T07:28:17.195Z,14.97
2023-11-30T07:30:44.133Z,15.37
2023-11-30T07:33:11.321Z,15.50
2023-11-30T07:35:38.155Z,15.77
2023-11-30T07:38:04.921Z,15.67
2023-11-30T07:40:32.672Z,15.83
2023-11-30T07:42:59.104Z,16.40
2023-11-30T07:45:25.511Z,15.80
2023-11-30T07:47:52.522Z,15.47
2023-11-30T07:50:18.824Z,14.90
2023-11-30T07:52:45.101Z,15.10
2023-11-30T07:55:11.397Z,15.60
2023-11-30T07:57:37.659Z,15.13
2023-11-30T08:00:05.756Z,14.53
2023-11-30T08:02:32.043Z,14.60
2023-11-30T08:04:58.962Z,14.87
2023-11-30T08:07:25.311Z,15.03
2023-11-30T08:09:51.607Z,15.37
2023-11-30T08:12:17.924Z,14.67
2023-11-30T08:14:44.212Z,14.03
2023-11-30T08:17:10.864Z,14.63
2023-11-30T08:19:37.343Z,15.20
2023-11-30T08:22:06.941Z,15.93
2023-11-30T08:24:33.396Z,16.33
2023-11-30T08:27:00.100Z,16.37
2023-11-30T08:29:26.558Z,16.10
2023-11-30T08:31:52.838Z,14.40
2023-11-30T08:34:19.098Z,14.60
2023-11-30T08:36:45.527Z,14.33
2023-11-30T08:39:12.599Z,14.20
2023-11-30T08:41:38.841Z,14.37
2023-11-30T08:44:05.487Z,14.10
2023-11-30T08:46:31.871Z,12.53
2023-11-30T08:48:58.277Z,13.27
2023-11-30T08:51:24.864Z,12.67
2023-11-30T08:53:51.584Z,13.23
2023-11-30T08:56:18.752Z,13.30
2023-11-30T08:58:45.168Z,14.03
2023-11-30T09:01:11.480Z,14.23
2023-11-30T09:03:38.114Z,13.73
2023-11-30T09:06:04.899Z,13.77
2023-11-30T09:08:31.189Z,12.87
2023-11-30T09:10:57.503Z,13.67
2023-11-30T09:13:24.418Z,13.77
2023-11-30T09:15:50.778Z,13.80
2023-11-30T09:18:17.927Z,13.60
2023-11-30T09:20:44.328Z,13.97
2023-11-30T09:23:10.646Z,13.77
2023-11-30T09:25:36.916Z,13.73
2023-11-30T09:28:03.371Z,13.97
2023-11-30T09:30:30.278Z,15.23
2023-11-30T09:32:56.556Z,17.53
2023-11-30T09:35:22.945Z,16.13
2023-11-30T09:37:49.219Z,13.77
2023-11-30T09:40:15.869Z,17.77
2023-11-30T09:42:42.196Z,16.37
2023-11-30T09:45:09.617Z,16.47
2023-11-30T09:47:36.566Z,14.97
2023-11-30T09:50:03.039Z,15.10
2023-11-30T09:52:29.352Z,13.73
2023-11-30T09:54:57.038Z,12.47
2023-11-30T09:57:23.602Z,11.40
2023-11-30T09:59:50.831Z,12.67
2023-11-30T10:02:17.620Z,10.83
2023-11-30T10:04:45.142Z,11.73
2023-11-30T10:07:11.690Z,11.83
2023-11-30T10:09:38.167Z,11.13
2023-11-30T10:12:05.280Z,10.23
2023-11-30T10:14:31.655Z,10.73
2023-11-30T10:16:59.689Z,10.13
2023-11-30T10:19:26.167Z,9.83
2023-11-30T10:21:55.367Z,9.60
2023-11-30T10:24:21.772Z,8.97
2023-11-30T10:26:51.666Z,9.80
2023-11-30T10:29:20.272Z,9.87
2023-11-30T10:31:48.131Z,9.43
2023-11-30T10:34:17.069Z,9.73
2023-11-30T10:36:43.990Z,9.67
2023-11-30T10:39:16.500Z,9.50
2023-11-30T10:41:49.272Z,9.73
2023-11-30T10:44:22.024Z,9.80
2023-11-30T10:46:49.128Z,9.60
2023-11-30T10:49:15.581Z,9.43
2023-11-30T10:51:42.277Z,8.93
2023-11-30T10:54:14.677Z,8.70
2023-11-30T10:56:41.215Z,9.57
2023-11-30T10:59:12.426Z,10.07
2023-11-30T11:01:39.026Z,9.00
2023-11-30T11:04:07.085Z,9.27
2023-11-30T11:06:33.512Z,9.23
2023-11-30T11:09:00.594Z,8.10
2023-11-30T11:11:29.220Z,9.00
2023-11-30T11:13:55.515Z,9.47
2023-11-30T11:16:33.262Z,8.97
2023-11-30T11:19:02.424Z,7.97
2023-11-30T11:21:29.833Z,7.73
2023-11-30T11:24:01.998Z,7.87
2023-11-30T11:26:28.837Z,7.93
2023-11-30T11:28:55.494Z,8.30
2023-11-30T11:31:22.436Z,8.43
2023-11-30T11:33:49.453Z,8.50
2023-11-30T11:36:15.713Z,8.23
2023-11-30T11:38:42.701Z,7.97
2023-11-30T11:41:09.027Z,8.57
2023-11-30T11:43:36.123Z,8.30
2023-11-30T11:46:02.562Z,8.90
2023-11-30T11:48:28.882Z,8.90
2023-11-30T11:50:58.942Z,8.30
2023-11-30T11:53:25.239Z,7.97
2023-11-30T11:55:51.622Z,8.10
2023-11-30T11:58:17.841Z,7.37
2023-11-30T12:00:53.504Z,7.20
2023-11-30T12:03:20.811Z,7.83
2023-11-30T12:05:48.120Z,7.37
2023-11-30T12:08:15.116Z,7.77
2023-11-30T12:10:42.838Z,7.80
2023-11-30T12:13:10.939Z,7.93
2023-11-30T12:15:37.979Z,7.63
2023-11-30T12:18:05.030Z,7.47
2023-11-30T12:20:31.678Z,8.23
2023-11-30T12:22:58.212Z,8.37
2023-11-30T12:25:25.383Z,7.83
2023-11-30T12:27:52.205Z,7.37
2023-11-30T12:30:19.134Z,7.13
2023-11-30T12:32:46.001Z,7.00
2023-11-30T12:35:13.224Z,6.80
2023-11-30T12:37:39.948Z,6.70
2023-11-30T12:40:09.236Z,6.57
2023-11-30T12:42:36.456Z,6.97
2023-11-30T12:45:03.946Z,6.53
2023-11-30T12:47:30.337Z,6.60
2023-11-30T12:49:56.641Z,7.20
2023-11-30T12:52:23.701Z,7.03
2023-11-30T12:54:51.830Z,6.87
2023-11-30T12:57:18.407Z,6.40
2023-11-30T12:59:44.753Z,6.50
2023-11-30T13:02:11.289Z,6.33
2023-11-30T13:04:39.308Z,6.43
2023-11-30T13:07:05.877Z,6.77
2023-11-30T13:09:34.970Z,6.70
2023-11-30T13:12:01.530Z,6.93
2023-11-30T13:14:28.651Z,6.60
2023-11-30T13:16:55.118Z,5.70
2023-11-30T13:19:24.691Z,6.20
2023-11-30T13:21:52.099Z,6.97
2023-11-30T13:24:18.997Z,6.30
2023-11-30T13:26:47.562Z,7.17
2023-11-30T13:29:13.815Z,7.77
2023-11-30T13:31:40.807Z,8.00
2023-11-30T13:34:07.232Z,7.40
2023-11-30T13:36:33.580Z,7.97
2023-11-30T13:39:00.819Z,7.93
2023-11-30T13:41:27.237Z,7.60
2023-11-30T13:43:54.299Z,7.23
2023-11-30T13:46:21.444Z,7.47
2023-11-30T13:48:47.829Z,7.17
2023-11-30T13:51:14.989Z,6.37
2023-11-30T13:53:41.607Z,5.47
2023-11-30T13:56:09.058Z,5.97
2023-11-30T13:58:35.502Z,6.27
2023-11-30T14:01:03.265Z,6.97
2023-11-30T14:03:29.912Z,6.13
2023-11-30T14:05:57.013Z,5.40
2023-11-30T14:08:23.341Z,5.43
2023-11-30T14:10:49.644Z,4.47
2023-11-30T14:13:16.275Z,6.27
2023-11-30T14:15:42.702Z,5.43
2023-11-30T14:18:09.702Z,5.43
2023-11-30T14:20:37.619Z,5.83
2023-11-30T14:23:05.542Z,6.10
2023-11-30T14:25:33.879Z,6.00
2023-11-30T14:28:05.304Z,5.93
2023-11-30T14:30:37.799Z,5.60
2023-11-30T14:33:04.215Z,6.27
2023-11-30T14:35:32.132Z,6.03
2023-11-30T14:37:58.436Z,6.07
2023-11-30T14:40:25.004Z,5.90
2023-11-30T14:42:51.510Z,6.17
2023-11-30T14:45:17.940Z,5.37
2023-11-30T14:47:44.556Z,5.43
2023-11-30T14:50:11.062Z,5.33
2023-11-30T14:52:38.102Z,5.53
2023-11-30T14:55:06.208Z,7.13
2023-11-30T14:57:32.484Z,7.13
2023-11-30T15:00:00.586Z,7.20
2023-11-30T15:02:27.043Z,7.13
2023-11-30T15:04:53.345Z,6.93
2023-11-30T15:07:19.759Z,7.37
2023-11-30T15:09:46.819Z,6.50
2023-11-30T15:12:13.091Z,6.23
2023-11-30T15:14:39.367Z,6.80
2023-11-30T15:17:05.707Z,7.20
2023-11-30T15:19:31.920Z,6.80
2023-11-30T15:21:58.277Z,7.77
2023-11-30T15:24:24.563Z,7.80
2023-11-30T15:26:52.735Z,7.63
2023-11-30T15:29:19.011Z,7.60
2023-11-30T15:31:45.387Z,7.57
2023-11-30T15:34:11.733Z,7.30
2023-11-30T15:36:41.347Z,8.00
2023-11-30T15:39:15.249Z,8.73
2023-11-30T15:41:42.478Z,8.10
2023-11-30T15:44:09.516Z,8.80
2023-11-30T15:46:35.882Z,8.03
2023-11-30T15:49:02.205Z,11.27
2023-11-30T15:51:28.751Z,8.13
2023-11-30T15:53:55.157Z,8.33
2023-11-30T15:56:21.462Z,8.10
2023-11-30T15:58:49.043Z,8.13
2023-11-30T16:01:16.018Z,8.77
2023-11-30T16:03:42.317Z,8.60
2023-11-30T16:06:10.593Z,8.23
2023-11-30T16:08:36.851Z,7.90
2023-11-30T16:11:03.937Z,7.30
2023-11-30T16:13:30.292Z,9.17
2023-11-30T16:15:56.638Z,7.57
2023-11-30T16:18:23.593Z,7.27
2023-11-30T16:20:50.241Z,7.83
2023-11-30T16:23:16.444Z,8.47
2023-11-30T16:25:42.949Z,9.47
2023-11-30T16:28:09.611Z,10.27
2023-11-30T16:30:35.841Z,9.87
2023-11-30T16:33:02.767Z,10.40
2023-11-30T16:35:29.874Z,8.67
2023-11-30T16:37:56.339Z,8.80
2023-11-30T16:40:22.854Z,10.53
2023-11-30T16:42:49.133Z,10.37
2023-11-30T16:45:15.552Z,11.07
2023-11-30T16:47:41.951Z,11.67
2023-11-30T16:50:13.708Z,12.10
2023-11-30T16:52:41.427Z,11.97
2023-11-30T16:55:08.255Z,12.73
2023-11-30T16:57:34.644Z,11.97
2023-11-30T17:00:03.204Z,14.20
2023-11-30T17:02:29.506Z,17.33
2023-11-30T17:04:55.886Z,14.20
2023-11-30T17:07:24.148Z,14.20
2023-11-30T17:09:51.191Z,15.63
2023-11-30T17:12:18.351Z,17.37
2023-11-30T17:14:44.738Z,14.83
2023-11-30T17:17:11.223Z,15.43
2023-11-30T17:19:37.458Z,14.40
2023-11-30T17:22:04.086Z,13.70
2023-11-30T17:24:32.629Z,14.50
2023-11-30T17:27:00.160Z,14.77
2023-11-30T17:29:26.562Z,14.67
2023-11-30T17:31:52.917Z,14.50
2023-11-30T17:34:19.408Z,14.93
2023-11-30T17:36:46.741Z,14.53
2023-11-30T17:39:16.420Z,14.73
2023-11-30T17:41:44.309Z,14.47
2023-11-30T17:44:11.321Z,15.13
2023-11-30T17:46:39.122Z,15.97
2023-11-30T17:49:06.063Z,17.57
2023-11-30T17:51:32.510Z,22.17
2023-11-30T17:53:58.840Z,17.60
2023-11-30T17:56:25.113Z,21.17
2023-11-30T17:58:51.607Z,21.83
2023-11-30T18:01:18.528Z,19.57
2023-11-30T18:03:44.876Z,27.67
2023-11-30T18:06:11.495Z,30.33
2023-11-30T18:08:37.918Z,24.03
2023-11-30T18:11:04.435Z,23.70
2023-11-30T18:13:30.961Z,20.87
2023-11-30T18:15:57.981Z,21.10
2023-11-30T18:18:26.192Z,22.27
2023-11-30T18:20:52.513Z,24.27
2023-11-30T18:23:18.784Z,25.13
2023-11-30T18:25:45.243Z,24.87
2023-11-30T18:28:12.050Z,22.67
2023-11-30T18:30:41.318Z,24.80
2023-11-30T18:33:08.323Z,21.73
2023-11-30T18:35:35.438Z,22.53
2023-11-30T18:38:03.770Z,19.97
2023-11-30T18:40:30.601Z,24.07
2023-11-30T18:42:57.373Z,21.87
2023-11-30T18:45:23.789Z,24.67
2023-11-30T18:47:50.196Z,23.90
2023-11-30T18:50:17.176Z,25.17
2023-11-30T18:52:44.264Z,26.67
2023-11-30T18:55:10.658Z,24.80
2023-11-30T18:57:37.058Z,32.27
2023-11-30T19:00:06.101Z,25.13
2023-11-30T19:02:32.486Z,44.03
2023-11-30T19:04:58.835Z,33.70
2023-11-30T19:07:25.181Z,29.83
2023-11-30T19:09:52.562Z,29.10
2023-11-30T19:12:19.130Z,28.83
2023-11-30T19:14:45.692Z,27.03
2023-11-30T19:17:12.084Z,28.27
2023-11-30T19:19:39.230Z,28.20
2023-11-30T19:22:05.988Z,31.07
2023-11-30T19:24:32.538Z,33.00
2023-11-30T19:26:59.484Z,33.63
2023-11-30T19:29:25.961Z,34.97
2023-11-30T19:31:52.323Z,35.03
2023-11-30T19:34:18.819Z,34.90
2023-11-30T19:36:45.793Z,34.63
2023-11-30T19:39:12.026Z,35.23
2023-11-30T19:41:42.099Z,35.17
2023-11-30T19:44:09.142Z,38.23
2023-11-30T19:46:37.136Z,38.03
2023-11-30T19:49:03.667Z,37.80
2023-11-30T19:51:29.860Z,39.57
2023-11-30T19:53:57.295Z,37.33
2023-11-30T19:56:23.701Z,36.70
2023-11-30T19:58:50.172Z,37.37
2023-11-30T20:01:21.226Z,37.53
2023-11-30T20:03:47.688Z,37.80
2023-11-30T20:06:14.255Z,36.63
2023-11-30T20:08:40.712Z,37.47
2023-11-30T20:11:07.916Z,37.40
2023-11-30T20:13:34.106Z,39.60
2023-11-30T20:16:07.112Z,37.00
2023-11-30T20:18:35.627Z,39.00
2023-11-30T20:21:03.107Z,36.03
2023-11-30T20:23:29.354Z,35.70
2023-11-30T20:25:55.664Z,37.60
2023-11-30T20:28:22.012Z,38.97
2023-11-30T20:30:48.555Z,35.47
2023-11-30T20:33:14.977Z,38.00
2023-11-30T20:35:41.940Z,37.30
2023-11-30T20:38:08.181Z,36.63
2023-11-30T20:40:34.507Z,36.03
2023-11-30T20:43:01.628Z,36.33
2023-11-30T20:45:28.055Z,36.70
2023-11-30T20:47:55.208Z,37.40
2023-11-30T20:50:21.589Z,38.33
2023-11-30T20:52:48.401Z,36.33
2023-11-30T20:55:14.911Z,34.37
2023-11-30T20:57:44.862Z,34.03
2023-11-30T21:00:11.999Z,34.13
2023-11-30T21:02:38.395Z,34.10
2023-11-30T21:05:05.713Z,31.37
2023-11-30T21:07:31.980Z,30.17
2023-11-30T21:09:59.011Z,32.30
2023-11-30T21:12:25.575Z,32.50
2023-11-30T21:14:51.821Z,32.67
2023-11-30T21:17:18.374Z,33.90
2023-11-30T21:19:44.671Z,31.33
2023-11-30T21:22:11.213Z,33.10
2023-11-30T21:24:38.606Z,32.53
2023-11-30T21:27:05.676Z,33.10
2023-11-30T21:29:32.017Z,30.03
2023-11-30T21:31:58.440Z,31.93
2023-11-30T21:34:24.968Z,29.57
2023-11-30T21:36:51.389Z,28.13
2023-11-30T21:39:17.716Z,27.90
2023-11-30T21:41:44.249Z,27.83
2023-11-30T21:44:11.138Z,29.50
2023-11-30T21:46:37.528Z,28.03
2023-11-30T21:49:04.152Z,28.13
2023-11-30T21:51:31.142Z,27.73
2023-11-30T21:53:58.192Z,26.90
2023-11-30T21:56:24.561Z,25.93
2023-11-30T21:58:50.976Z,26.23
2023-11-30T22:01:18.426Z,26.37
2023-11-30T22:03:44.852Z,26.57
2023-11-30T22:06:11.433Z,25.73
2023-11-30T22:08:37.744Z,27.30
2023-11-30T22:11:04.495Z,28.53
2023-11-30T22:13:30.816Z,27.07
2023-11-30T22:16:03.885Z,27.87
2023-11-30T22:18:36.736Z,26.70
2023-11-30T22:21:03.387Z,28.03
2023-11-30T22:23:31.328Z,26.80
2023-11-30T22:26:03.729Z,27.77
2023-11-30T22:28:31.144Z,26.67
2023-11-30T22:30:59.021Z,27.97
2023-11-30T22:33:25.398Z,25.90
2023-11-30T22:35:52.466Z,26.83
2023-11-30T22:38:18.732Z,30.20
2023-11-30T22:40:45.052Z,27.50
2023-11-30T22:43:11.396Z,28.30
2023-11-30T22:45:37.943Z,28.73
2023-11-30T22:48:04.332Z,28.27
2023-11-30T22:50:30.607Z,26.97
2023-11-30T22:52:57.772Z,28.20
2023-11-30T22:55:24.207Z,29.90
2023-11-30T22:57:50.574Z,29.10
2023-11-30T23:00:20.503Z,28.73
2023-11-30T23:02:48.219Z,28.67
2023-11-30T23:05:14.865Z,30.17
2023-11-30T23:07:41.161Z,29.83
2023-11-30T23:10:12.390Z,30.50
2023-11-30T23:12:39.468Z,31.60
2023-11-30T23:15:06.722Z,29.80
2023-11-30T23:17:34.431Z,29.73
2023-11-30T23:20:00.667Z,29.73
2023-11-30T23:22:26.868Z,30.27
2023-11-30T23:24:53.267Z,30.63
2023-11-30T23:27:20.622Z,29.73
2023-11-30T23:29:46.900Z,30.03
2023-11-30T23:32:13.188Z,30.00
2023-11-30T23:34:39.429Z,32.50
2023-11-30T23:37:05.648Z,30.07
2023-11-30T23:39:32.003Z,30.60
2023-11-30T23:41:58.265Z,29.93
2023-11-30T23:44:25.232Z,30.87
2023-11-30T23:46:51.546Z,29.73
2023-11-30T23:49:17.858Z,29.70
2023-11-30T23:51:44.262Z,29.37
2023-11-30T23:54:10.642Z,30.67
2023-11-30T23:56:36.879Z,30.93
2023-11-30T23:59:03.208Z,30.37
